createdAt,value
2018-04-27T00:00:59.872Z,99228
2018-04-27T00:03:30.914Z,99232
2018-04-27T00:06:01.509Z,99228
2018-04-27T00:08:32.214Z,99234
2018-04-27T00:11:03.023Z,99233
2018-04-27T00:13:33.440Z,99233
2018-04-27T00:16:04.134Z,99232
2018-04-27T00:18:34.720Z,99239
2018-04-27T00:21:05.238Z,99243
2018-04-27T00:23:35.781Z,99241
2018-04-27T00:26:06.399Z,99248
2018-04-27T00:28:37.714Z,99254
2018-04-27T00:31:08.443Z,99251
2018-04-27T00:33:38.715Z,99251
2018-04-27T00:36:08.931Z,99247
2018-04-27T00:38:40.077Z,99257
2018-04-27T00:41:10.723Z,99262
2018-04-27T00:43:41.405Z,99263
2018-04-27T00:46:12.012Z,99261
2018-04-27T00:48:43.539Z,99262
2018-04-27T00:51:14.517Z,99254
2018-04-27T00:53:45.109Z,99258
2018-04-27T00:56:16.041Z,99251
2018-04-27T00:58:46.877Z,99249
2018-04-27T01:01:17.485Z,99247
2018-04-27T01:03:48.339Z,99239
2018-04-27T01:06:18.847Z,99237
2018-04-27T01:08:49.760Z,99241
2018-04-27T01:11:20.604Z,99238
2018-04-27T01:13:50.865Z,99241
2018-04-27T01:16:20.995Z,99239
2018-04-27T01:18:51.716Z,99237
2018-04-27T01:21:22.366Z,99239
2018-04-27T01:23:53.438Z,99236
2018-04-27T01:26:24.225Z,99240
2018-04-27T01:28:55.235Z,99242
2018-04-27T01:31:25.816Z,99247
2018-04-27T01:33:56.575Z,99246
2018-04-27T01:36:27.262Z,99244
2018-04-27T01:38:57.906Z,99248
2018-04-27T01:41:28.389Z,99257
2018-04-27T01:43:58.973Z,99271
2018-04-27T01:46:29.502Z,99275
2018-04-27T01:49:00.027Z,99277
2018-04-27T01:51:30.686Z,99273
2018-04-27T01:54:01.241Z,99270
2018-04-27T01:56:31.723Z,99262
2018-04-27T01:59:02.372Z,99259
2018-04-27T02:01:32.757Z,99254
2018-04-27T02:04:03.622Z,99257
2018-04-27T02:06:34.312Z,99256
2018-04-27T02:09:04.986Z,99263
2018-04-27T02:11:35.423Z,99260
2018-04-27T02:14:05.905Z,99250
2018-04-27T02:16:36.373Z,99261
2018-04-27T02:19:07.290Z,99262
2018-04-27T02:21:38.210Z,99266
2018-04-27T02:24:08.523Z,99266
2018-04-27T02:26:39.301Z,99269
2018-04-27T02:29:09.725Z,99264
2018-04-27T02:31:40.173Z,99275
2018-04-27T02:34:10.698Z,99279
2018-04-27T02:36:41.232Z,99281
2018-04-27T02:39:11.236Z,99286
2018-04-27T02:41:42.090Z,99290
2018-04-27T02:44:11.896Z,99283
2018-04-27T02:46:43.436Z,99283
2018-04-27T02:49:13.425Z,99283
2018-04-27T02:51:44.574Z,99289
2018-04-27T02:54:15.225Z,99290
2018-04-27T02:56:45.585Z,99290
2018-04-27T02:59:16.369Z,99292
2018-04-27T03:01:46.802Z,99294
2018-04-27T03:04:17.951Z,99299
2018-04-27T03:06:50.031Z,99296
2018-04-27T03:09:21.178Z,99300
2018-04-27T03:11:51.826Z,99308
2018-04-27T03:14:23.180Z,99309
2018-04-27T03:16:54.011Z,99307
2018-04-27T03:19:24.980Z,99304
2018-04-27T03:21:55.362Z,99313
2018-04-27T03:24:25.186Z,99312
2018-04-27T03:26:55.612Z,99310
2018-04-27T03:29:26.347Z,99308
2018-04-27T03:31:57.339Z,99306
2018-04-27T03:34:29.713Z,99313
2018-04-27T03:37:00.164Z,99311
2018-04-27T03:39:30.487Z,99312
2018-04-27T03:42:01.148Z,99314
2018-04-27T03:44:31.496Z,99311
2018-04-27T03:47:02.071Z,99317
2018-04-27T03:49:33.176Z,99322
2018-04-27T03:52:03.573Z,99326
2018-04-27T03:54:34.159Z,99331
2018-04-27T03:57:05.040Z,99342
2018-04-27T03:59:47.445Z,99343
2018-04-27T04:02:29.817Z,99349
2018-04-27T04:05:12.679Z,99346
2018-04-27T04:07:43.165Z,99350
2018-04-27T04:10:14.003Z,99343
2018-04-27T04:12:44.259Z,99343
2018-04-27T04:15:14.479Z,99348
2018-04-27T04:17:45.037Z,99355
2018-04-27T04:20:15.551Z,99354
2018-04-27T04:22:46.489Z,99354
2018-04-27T04:25:19.964Z,99354
2018-04-27T04:27:50.327Z,99352
2018-04-27T04:30:21.023Z,99350
2018-04-27T04:32:51.366Z,99363
2018-04-27T04:35:21.895Z,99371
2018-04-27T04:37:52.981Z,99384
2018-04-27T04:40:23.385Z,99379
2018-04-27T04:42:53.675Z,99379
2018-04-27T04:45:23.500Z,99375
2018-04-27T04:47:54.563Z,99373
2018-04-27T04:50:25.092Z,99373
2018-04-27T04:52:56.108Z,99364
2018-04-27T04:55:27.403Z,99366
2018-04-27T04:57:58.146Z,99367
2018-04-27T05:00:28.135Z,99365
2018-04-27T05:02:58.408Z,99366
2018-04-27T05:05:28.852Z,99381
2018-04-27T05:07:59.365Z,99380
2018-04-27T05:10:29.999Z,99387
2018-04-27T05:12:59.942Z,99393
2018-04-27T05:15:30.288Z,99407
2018-04-27T05:18:02.310Z,99408
2018-04-27T05:20:33.276Z,99411
2018-04-27T05:23:03.962Z,99414
2018-04-27T05:25:34.726Z,99414
2018-04-27T05:28:05.327Z,99412
2018-04-27T05:30:36.096Z,99403
2018-04-27T05:33:06.710Z,99395
2018-04-27T05:35:37.348Z,99396
2018-04-27T05:38:08.194Z,99393
2018-04-27T05:40:38.789Z,99398
2018-04-27T05:43:10.230Z,99402
2018-04-27T05:45:40.927Z,99409
2018-04-27T05:48:11.490Z,99416
2018-04-27T05:50:41.887Z,99422
2018-04-27T05:53:12.724Z,99417
2018-04-27T05:55:43.610Z,99410
2018-04-27T05:58:14.379Z,99404
2018-04-27T06:00:44.910Z,99402
2018-04-27T06:03:15.550Z,99410
2018-04-27T06:05:45.797Z,99404
2018-04-27T06:08:16.194Z,99403
2018-04-27T06:10:48.030Z,99402
2018-04-27T06:13:18.404Z,99409
2018-04-27T06:15:49.340Z,99412
2018-04-27T06:18:20.935Z,99416
2018-04-27T06:20:51.417Z,99421
2018-04-27T06:23:21.405Z,99425
2018-04-27T06:25:51.981Z,99417
2018-04-27T06:28:22.591Z,99413
2018-04-27T06:30:52.971Z,99418
2018-04-27T06:33:23.554Z,99411
2018-04-27T06:35:53.954Z,99412
2018-04-27T06:38:24.282Z,99411
2018-04-27T06:40:54.838Z,99401
2018-04-27T06:43:25.545Z,99399
2018-04-27T06:45:56.012Z,99405
2018-04-27T06:48:26.733Z,99398
2018-04-27T06:50:59.579Z,99407
2018-04-27T06:53:29.910Z,99410
2018-04-27T06:56:01.058Z,99408
2018-04-27T06:58:31.729Z,99417
2018-04-27T07:01:02.704Z,99410
2018-04-27T07:03:33.460Z,99416
2018-04-27T07:06:04.057Z,99414
2018-04-27T07:08:34.249Z,99411
2018-04-27T07:11:05.243Z,99408
2018-04-27T07:13:35.413Z,99401
2018-04-27T07:16:06.511Z,99409
2018-04-27T07:18:36.915Z,99399
2018-04-27T07:21:07.556Z,99400
2018-04-27T07:23:38.536Z,99388
2018-04-27T07:26:09.446Z,99388
2018-04-27T07:28:40.944Z,99388
2018-04-27T07:31:11.542Z,99399
2018-04-27T07:33:41.694Z,99399
2018-04-27T07:36:12.261Z,99409
2018-04-27T07:38:43.098Z,99398
2018-04-27T07:41:13.997Z,99389
2018-04-27T07:43:44.523Z,99390
2018-04-27T07:46:14.445Z,99390
2018-04-27T07:48:44.677Z,99397
2018-04-27T07:51:15.602Z,99404
2018-04-27T07:53:45.923Z,99402
2018-04-27T07:56:17.127Z,99407
2018-04-27T07:58:47.719Z,99405
2018-04-27T08:01:18.038Z,99413
2018-04-27T08:03:47.854Z,99414
2018-04-27T08:06:18.391Z,99421
2018-04-27T08:08:48.700Z,99422
2018-04-27T08:11:18.801Z,99426
2018-04-27T08:13:48.844Z,99429
2018-04-27T08:16:18.872Z,99426
2018-04-27T08:18:50.239Z,99432
2018-04-27T08:21:20.270Z,99434
2018-04-27T08:23:50.636Z,99439
2018-04-27T08:26:30.425Z,99444
2018-04-27T08:29:03.375Z,99445
2018-04-27T08:31:34.450Z,99445
2018-04-27T08:34:04.874Z,99441
2018-04-27T08:36:35.703Z,99434
2018-04-27T08:39:05.718Z,99448
2018-04-27T08:41:36.195Z,99448
2018-04-27T08:44:06.876Z,99436
2018-04-27T08:46:37.893Z,99431
2018-04-27T08:49:08.689Z,99429
2018-04-27T08:51:39.405Z,99428
2018-04-27T08:54:10.173Z,99425
2018-04-27T08:56:40.650Z,99423
2018-04-27T08:59:12.707Z,99421
2018-04-27T09:01:44.035Z,99421
2018-04-27T09:04:15.100Z,99416
2018-04-27T09:06:45.668Z,99413
2018-04-27T09:09:16.369Z,99410
2018-04-27T09:11:46.992Z,99412
2018-04-27T09:14:17.137Z,99409
2018-04-27T09:16:47.222Z,99410
2018-04-27T09:19:17.574Z,99409
2018-04-27T09:21:47.589Z,99408
2018-04-27T09:24:17.506Z,99413
2018-04-27T09:26:48.137Z,99409
2018-04-27T09:29:18.724Z,99405
2018-04-27T09:31:49.368Z,99409
2018-04-27T09:34:20.759Z,99405
2018-04-27T09:36:50.688Z,99407
2018-04-27T09:39:20.940Z,99406
2018-04-27T09:41:51.007Z,99411
2018-04-27T09:44:21.289Z,99403
2018-04-27T09:46:52.333Z,99397
2018-04-27T09:49:23.017Z,99392
2018-04-27T09:51:53.436Z,99386
2018-04-27T09:54:23.336Z,99386
2018-04-27T09:56:53.470Z,99393
2018-04-27T09:59:24.195Z,99389
2018-04-27T10:01:54.835Z,99384
2018-04-27T10:04:25.648Z,99383
2018-04-27T10:06:56.665Z,99381
2018-04-27T10:09:27.661Z,99380
2018-04-27T10:11:58.804Z,99375
2018-04-27T10:14:30.032Z,99372
2018-04-27T10:16:59.876Z,99370
2018-04-27T10:19:31.622Z,99367
2018-04-27T10:22:01.420Z,99358
2018-04-27T10:24:31.256Z,99358
2018-04-27T10:27:02.003Z,99354
2018-04-27T10:29:32.776Z,99351
2018-04-27T10:32:03.104Z,99357
2018-04-27T10:34:33.131Z,99351
2018-04-27T10:37:03.178Z,99358
2018-04-27T10:39:33.507Z,99352
2018-04-27T10:42:04.210Z,99357
2018-04-27T10:44:34.572Z,99357
2018-04-27T10:47:05.780Z,99358
2018-04-27T10:49:36.042Z,99354
2018-04-27T10:52:06.646Z,99347
2018-04-27T10:54:37.079Z,99347
2018-04-27T10:57:07.129Z,99351
2018-04-27T10:59:37.415Z,99350
2018-04-27T11:02:07.939Z,99337
2018-04-27T11:04:38.897Z,99331
2018-04-27T11:07:09.461Z,99329
2018-04-27T11:09:40.710Z,99326
2018-04-27T11:12:11.013Z,99319
2018-04-27T11:14:41.131Z,99314
2018-04-27T11:17:11.245Z,99308
2018-04-27T11:19:42.202Z,99309
2018-04-27T11:22:12.332Z,99309
2018-04-27T11:24:42.812Z,99312
2018-04-27T11:27:13.023Z,99314
2018-04-27T11:29:44.157Z,99316
2018-04-27T11:32:14.538Z,99317
2018-04-27T11:34:44.958Z,99315
2018-04-27T11:37:15.302Z,99322
2018-04-27T11:39:45.719Z,99320
2018-04-27T11:42:15.843Z,99317
2018-04-27T11:44:46.678Z,99320
2018-04-27T11:47:17.107Z,99319
2018-04-27T11:49:47.112Z,99317
2018-04-27T11:52:18.104Z,99310
2018-04-27T11:54:48.235Z,99310
2018-04-27T11:57:18.396Z,99308
2018-04-27T11:59:48.489Z,99305
2018-04-27T12:02:18.438Z,99303
2018-04-27T12:04:48.349Z,99303
2018-04-27T12:07:18.464Z,99304
2018-04-27T12:09:48.449Z,99300
2018-04-27T12:12:19.222Z,99302
2018-04-27T12:14:49.405Z,99298
2018-04-27T12:17:19.867Z,99294
2018-04-27T12:19:49.887Z,99291
2018-04-27T12:22:20.741Z,99283
2018-04-27T12:24:51.207Z,99275
2018-04-27T12:27:21.273Z,99284
2018-04-27T12:29:51.588Z,99282
2018-04-27T12:32:21.733Z,99288
2018-04-27T12:34:52.533Z,99286
2018-04-27T12:37:22.481Z,99285
2018-04-27T12:39:52.906Z,99294
2018-04-27T12:42:22.812Z,99292
2018-04-27T12:44:53.418Z,99294
2018-04-27T12:47:23.789Z,99290
2018-04-27T12:49:53.901Z,99295
2018-04-27T12:52:24.837Z,99301
2018-04-27T12:54:54.823Z,99293
2018-04-27T12:57:25.226Z,99295
2018-04-27T12:59:56.440Z,99321
2018-04-27T13:02:27.052Z,99348
2018-04-27T13:04:57.600Z,99360
2018-04-27T13:07:28.245Z,99386
2018-04-27T13:09:58.308Z,99383
2018-04-27T13:12:29.364Z,99387
2018-04-27T13:14:59.712Z,99390
2018-04-27T13:17:30.553Z,99393
2018-04-27T13:20:00.869Z,99384
2018-04-27T13:22:31.191Z,99389
2018-04-27T13:25:01.375Z,99386
2018-04-27T13:27:31.643Z,99381
2018-04-27T13:30:01.993Z,99375
2018-04-27T13:32:32.615Z,99361
2018-04-27T13:35:03.230Z,99358
2018-04-27T13:37:33.970Z,99355
2018-04-27T13:40:04.079Z,99346
2018-04-27T13:42:34.270Z,99338
2018-04-27T13:45:04.411Z,99338
2018-04-27T13:47:37.218Z,99341
2018-04-27T13:50:08.127Z,99341
2018-04-27T13:52:38.679Z,99334
2018-04-27T13:55:08.590Z,99346
2018-04-27T13:57:38.922Z,99335
2018-04-27T14:00:09.003Z,99339
2018-04-27T14:02:39.081Z,99345
2018-04-27T14:05:09.282Z,99346
2018-04-27T14:07:39.808Z,99341
2018-04-27T14:10:09.834Z,99345
2018-04-27T14:12:40.154Z,99344
2018-04-27T14:15:10.067Z,99344
2018-04-27T14:17:40.406Z,99342
2018-04-27T14:20:10.721Z,99342
2018-04-27T14:22:40.956Z,99338
2018-04-27T14:25:11.268Z,99342
2018-04-27T14:27:42.523Z,99334
2018-04-27T14:30:12.631Z,99332
2018-04-27T14:32:43.131Z,99339
2018-04-27T14:35:13.727Z,99332
2018-04-27T14:37:45.168Z,99329
2018-04-27T14:40:15.171Z,99336
2018-04-27T14:42:46.106Z,99334
2018-04-27T14:45:17.063Z,99329
2018-04-27T14:47:47.763Z,99331
2018-04-27T14:50:17.899Z,99332
2018-04-27T14:52:48.471Z,99336
2018-04-27T14:55:19.548Z,99333
2018-04-27T14:57:50.178Z,99334
2018-04-27T15:00:21.064Z,99334
2018-04-27T15:02:52.153Z,99326
2018-04-27T15:05:22.896Z,99331
2018-04-27T15:07:53.845Z,99324
2018-04-27T15:10:24.654Z,99326
2018-04-27T15:12:54.619Z,99327
2018-04-27T15:15:24.535Z,99333
2018-04-27T15:17:54.613Z,99326
2018-04-27T15:20:25.456Z,99330
2018-04-27T15:22:55.883Z,99336
2018-04-27T15:25:27.121Z,99337
2018-04-27T15:27:57.081Z,99340
2018-04-27T15:30:27.400Z,99343
2018-04-27T15:32:57.432Z,99344
2018-04-27T15:35:27.553Z,99348
2018-04-27T15:37:57.967Z,99351
2018-04-27T15:40:28.838Z,99352
2018-04-27T15:42:59.547Z,99360
2018-04-27T15:45:29.858Z,99356
2018-04-27T15:48:00.194Z,99365
2018-04-27T15:50:30.008Z,99367
2018-04-27T15:53:00.223Z,99370
2018-04-27T15:55:30.634Z,99374
2018-04-27T15:58:00.641Z,99380
2018-04-27T16:00:31.475Z,99382
2018-04-27T16:03:01.738Z,99384
2018-04-27T16:05:31.542Z,99387
2018-04-27T16:08:01.968Z,99385
2018-04-27T16:10:32.399Z,99388
2018-04-27T16:13:10.059Z,99395
2018-04-27T16:15:40.324Z,99397
2018-04-27T16:18:10.445Z,99405
2018-04-27T16:20:41.173Z,99409
2018-04-27T16:23:11.199Z,99414
2018-04-27T16:25:42.229Z,99419
2018-04-27T16:28:12.351Z,99421
2018-04-27T16:30:42.378Z,99426
2018-04-27T16:33:12.602Z,99435
2018-04-27T16:35:43.095Z,99444
2018-04-27T16:38:13.240Z,99448
2018-04-27T16:40:43.251Z,99447
2018-04-27T16:43:14.224Z,99454
2018-04-27T16:45:44.216Z,99449
2018-04-27T16:48:15.101Z,99459
2018-04-27T16:50:45.379Z,99467
2018-04-27T16:53:16.146Z,99468
2018-04-27T16:55:46.236Z,99474
2018-04-27T16:58:16.157Z,99476
2018-04-27T17:00:46.649Z,99477
2018-04-27T17:03:16.655Z,99485
2018-04-27T17:05:47.126Z,99491
2018-04-27T17:08:17.460Z,99497
2018-04-27T17:10:47.880Z,99493
2018-04-27T17:13:18.449Z,99506
2018-04-27T17:15:48.430Z,99503
2018-04-27T17:18:18.551Z,99507
2018-04-27T17:20:48.683Z,99504
2018-04-27T17:23:19.408Z,99512
2018-04-27T17:25:50.576Z,99513
2018-04-27T17:28:21.366Z,99516
2018-04-27T17:30:52.637Z,99519
2018-04-27T17:33:22.648Z,99521
2018-04-27T17:35:52.994Z,99527
2018-04-27T17:38:23.001Z,99528
2018-04-27T17:40:52.822Z,99536
2018-04-27T17:43:22.754Z,99542
2018-04-27T17:45:52.863Z,99548
2018-04-27T17:48:22.771Z,99552
2018-04-27T17:50:53.399Z,99560
2018-04-27T17:53:23.826Z,99565
2018-04-27T17:55:54.354Z,99571
2018-04-27T17:58:25.354Z,99583
2018-04-27T18:00:55.507Z,99600
2018-04-27T18:03:26.139Z,99600
2018-04-27T18:05:56.872Z,99605
2018-04-27T18:08:27.286Z,99605
2018-04-27T18:10:57.836Z,99611
2018-04-27T18:13:27.756Z,99615
2018-04-27T18:15:58.055Z,99616
2018-04-27T18:18:28.806Z,99622
2018-04-27T18:20:59.644Z,99624
2018-04-27T18:23:29.563Z,99629
2018-04-27T18:26:00.062Z,99630
2018-04-27T18:28:30.311Z,99634
2018-04-27T18:31:00.744Z,99633
2018-04-27T18:33:31.747Z,99639
2018-04-27T18:36:02.413Z,99640
2018-04-27T18:38:33.459Z,99647
2018-04-27T18:41:03.476Z,99654
2018-04-27T18:43:33.716Z,99671
2018-04-27T18:46:05.090Z,99681
2018-04-27T18:48:37.901Z,99690
2018-04-27T18:51:08.872Z,99691
2018-04-27T18:53:38.901Z,99692
2018-04-27T18:56:09.215Z,99693
2018-04-27T18:58:39.549Z,99702
2018-04-27T19:01:10.113Z,99706
2018-04-27T19:03:40.092Z,99708
2018-04-27T19:06:10.115Z,99708
2018-04-27T19:08:40.125Z,99711
2018-04-27T19:11:10.056Z,99716
2018-04-27T19:13:39.972Z,99722
2018-04-27T19:16:09.884Z,99723
2018-04-27T19:18:40.160Z,99721
2018-04-27T19:21:10.889Z,99727
2018-04-27T19:23:41.349Z,99728
2018-04-27T19:26:11.276Z,99730
2018-04-27T19:28:41.289Z,99727
2018-04-27T19:31:11.206Z,99730
2018-04-27T19:33:41.231Z,99731
2018-04-27T19:36:11.512Z,99732
2018-04-27T19:38:41.371Z,99731
2018-04-27T19:41:11.402Z,99731
2018-04-27T19:43:41.504Z,99739
2018-04-27T19:46:11.644Z,99734
2018-04-27T19:48:41.962Z,99737
2018-04-27T19:51:12.760Z,99735
2018-04-27T19:53:42.819Z,99743
2018-04-27T19:56:12.720Z,99743
2018-04-27T19:58:43.536Z,99749
2018-04-27T20:01:13.582Z,99747
2018-04-27T20:03:44.022Z,99749
2018-04-27T20:06:14.022Z,99750
2018-04-27T20:08:44.548Z,99762
2018-04-27T20:11:14.660Z,99759
2018-04-27T20:13:45.848Z,99762
2018-04-27T20:16:37.034Z,99774
2018-04-27T20:19:07.768Z,99773
2018-04-27T20:21:37.813Z,99775
2018-04-27T20:24:08.288Z,99784
2018-04-27T20:26:38.405Z,99783
2018-04-27T20:29:08.444Z,99781
2018-04-27T20:31:39.402Z,99783
2018-04-27T20:34:09.399Z,99784
2018-04-27T20:36:40.419Z,99785
2018-04-27T20:39:10.466Z,99792
2018-04-27T20:41:40.686Z,99798
2018-04-27T20:44:10.704Z,99793
2018-04-27T20:46:40.629Z,99798
2018-04-27T20:49:11.063Z,99802
2018-04-27T20:51:40.963Z,99805
2018-04-27T20:54:10.882Z,99806
2018-04-27T20:56:46.988Z,99817
2018-04-27T20:59:17.822Z,99814
2018-04-27T21:01:47.799Z,99820
2018-04-27T21:04:17.803Z,99818
2018-04-27T21:06:48.224Z,99826
2018-04-27T21:09:18.275Z,99826
2018-04-27T21:11:48.287Z,99831
2018-04-27T21:14:18.873Z,99839
2018-04-27T21:16:48.929Z,99844
2018-04-27T21:19:19.529Z,99850
2018-04-27T21:21:49.690Z,99850
2018-04-27T21:24:19.594Z,99852
2018-04-27T21:26:49.621Z,99853
2018-04-27T21:29:19.749Z,99859
2018-04-27T21:31:49.757Z,99865
2018-04-27T21:34:19.772Z,99866
2018-04-27T21:36:50.511Z,99865
2018-04-27T21:39:30.878Z,99874
2018-04-27T21:42:03.612Z,99878
2018-04-27T21:44:45.636Z,99881
2018-04-27T21:47:36.664Z,99882
2018-04-27T21:50:06.629Z,99887
2018-04-27T21:52:44.639Z,99899
2018-04-27T21:55:15.824Z,99905
2018-04-27T21:58:04.891Z,99916
2018-04-27T22:00:35.610Z,99917
2018-04-27T22:03:20.484Z,99919
2018-04-27T22:06:01.279Z,99914
2018-04-27T22:08:37.267Z,99924
2018-04-27T22:11:07.779Z,99929
2018-04-27T22:13:38.141Z,99928
2018-04-27T22:16:14.024Z,99929
2018-04-27T22:18:44.096Z,99926
2018-04-27T22:21:13.972Z,99934
2018-04-27T22:23:44.710Z,99928
2018-04-27T22:26:18.601Z,99923
2018-04-27T22:28:51.372Z,99915
2018-04-27T22:31:22.238Z,99926
2018-04-27T22:33:56.061Z,99925
2018-04-27T22:36:42.531Z,99932
2018-04-27T22:39:22.174Z,99933
2018-04-27T22:41:54.626Z,99939
2018-04-27T22:44:25.503Z,99941
2018-04-27T22:46:55.624Z,99947
2018-04-27T22:49:25.635Z,99946
2018-04-27T22:51:56.751Z,99941
2018-04-27T22:57:39.109Z,99942
2018-04-27T23:00:10.248Z,99940
2018-04-27T23:02:40.160Z,99942
2018-04-27T23:05:34.433Z,99944
2018-04-27T23:08:04.360Z,99950
2018-04-27T23:10:59.584Z,99953
2018-04-27T23:13:34.404Z,99955
2018-04-27T23:16:05.619Z,99951
2018-04-27T23:18:52.058Z,99958
2018-04-27T23:21:39.134Z,99956
2018-04-27T23:24:11.035Z,99960
2018-04-27T23:26:41.150Z,99964
2018-04-27T23:29:11.857Z,99960
2018-04-27T23:31:43.198Z,99961
2018-04-27T23:34:13.171Z,99962
2018-04-27T23:36:43.243Z,99961
2018-04-27T23:39:13.573Z,99968
2018-04-27T23:41:44.144Z,99973
2018-04-27T23:44:14.042Z,99976
2018-04-27T23:46:44.058Z,99977
2018-04-27T23:49:15.165Z,99983
2018-04-27T23:51:46.565Z,99988
2018-04-27T23:54:16.569Z,99987
2018-04-27T23:56:47.667Z,99985
2018-04-27T23:59:18.451Z,99980
